EWG1KF EDDS-EDDH
Flight info
| Callsign | EWG1KF |
|---|---|
| Flight time | 0h 54m |
| Altitude | 34000 |
| Route | OKIBA4B/25 OKIBA N851 RIMKI Z99 LOHRE DCT MASEK DCT ELNAT P605 NOLGO NOLGO6A |
| Aircraft | A319/M-SDE2E3FGIJ1RWXYZ/EB1 |
Departure
| Time | 2026-04-20 16:01 |
|---|---|
| Airport | Stuttgart Airport (EDDS) |
Arrival
| Time | 2026-04-20 16:55 |
|---|---|
| Airport | Hamburg Helmut Schmidt Airport (EDDH) |
| Time | Latitude | Longitude | Altitude | Speed | Heading |
|---|---|---|---|---|---|
| 2026-04-20 15:20 | 48.68926 | 9.19580 | 1315 ft | 0 kts | 344° |
| 2026-04-20 15:34 | 48.68925 | 9.19580 | 1315 ft | 0 kts | 344° |
| 2026-04-20 15:49 | 48.68909 | 9.19588 | 1313 ft | 4 kts | 344° |
| 2026-04-20 15:49 | 48.68884 | 9.19598 | 1312 ft | 2 kts | 344° |
| 2026-04-20 15:50 | 48.68862 | 9.19604 | 1310 ft | 4 kts | 19° |
| 2026-04-20 15:50 | 48.68845 | 9.19581 | 1310 ft | 4 kts | 69° |
| 2026-04-20 15:50 | 48.68842 | 9.19570 | 1310 ft | 1 kts | 74° |
| 2026-04-20 15:54 | 48.68842 | 9.19571 | 1310 ft | 0 kts | 74° |
| 2026-04-20 15:54 | 48.68846 | 9.19591 | 1310 ft | 4 kts | 74° |
| 2026-04-20 15:54 | 48.68855 | 9.19640 | 1309 ft | 6 kts | 74° |
| 2026-04-20 15:55 | 48.68870 | 9.19717 | 1307 ft | 9 kts | 74° |
| 2026-04-20 15:55 | 48.68895 | 9.19827 | 1304 ft | 12 kts | 58° |
| 2026-04-20 15:55 | 48.68943 | 9.19946 | 1303 ft | 12 kts | 58° |
| 2026-04-20 15:55 | 48.68989 | 9.20060 | 1302 ft | 13 kts | 60° |
| 2026-04-20 15:56 | 48.69020 | 9.20213 | 1298 ft | 17 kts | 75° |
| 2026-04-20 15:56 | 48.69057 | 9.20403 | 1290 ft | 19 kts | 74° |
| 2026-04-20 15:56 | 48.69025 | 9.20532 | 1285 ft | 16 kts | 134° |
| 2026-04-20 15:56 | 48.68959 | 9.20673 | 1279 ft | 17 kts | 89° |
| 2026-04-20 15:57 | 48.68995 | 9.20855 | 1274 ft | 20 kts | 73° |
| 2026-04-20 15:57 | 48.69034 | 9.21068 | 1278 ft | 23 kts | 74° |
| 2026-04-20 15:57 | 48.69080 | 9.21311 | 1268 ft | 26 kts | 74° |
| 2026-04-20 15:57 | 48.69132 | 9.21585 | 1261 ft | 28 kts | 74° |
| 2026-04-20 15:58 | 48.69188 | 9.21874 | 1251 ft | 30 kts | 73° |
| 2026-04-20 15:58 | 48.69246 | 9.22179 | 1243 ft | 30 kts | 74° |
| 2026-04-20 15:58 | 48.69304 | 9.22487 | 1236 ft | 31 kts | 74° |
| 2026-04-20 15:58 | 48.69365 | 9.22801 | 1230 ft | 30 kts | 73° |
| 2026-04-20 15:59 | 48.69409 | 9.23050 | 1225 ft | 17 kts | 82° |
| 2026-04-20 15:59 | 48.69336 | 9.23162 | 1219 ft | 18 kts | 186° |
| 2026-04-20 15:59 | 48.69246 | 9.23073 | 1216 ft | 14 kts | 224° |
| 2026-04-20 15:59 | 48.69176 | 9.22972 | 1217 ft | 13 kts | 218° |
| 2026-04-20 16:00 | 48.69120 | 9.22902 | 1219 ft | 7 kts | 250° |
| 2026-04-20 16:00 | 48.69109 | 9.22844 | 1220 ft | 7 kts | 253° |
| 2026-04-20 16:00 | 48.69038 | 9.22456 | 1229 ft | 78 kts | 254° |
| 2026-04-20 16:00 | 48.68828 | 9.21332 | 1270 ft | 140 kts | 255° |
| 2026-04-20 16:01 | 48.68528 | 9.19940 | 1962 ft | 134 kts | 251° |
| 2026-04-20 16:01 | 48.68193 | 9.18604 | 2551 ft | 144 kts | 256° |
| 2026-04-20 16:01 | 48.67906 | 9.17060 | 2991 ft | 161 kts | 260° |
| 2026-04-20 16:01 | 48.67609 | 9.15321 | 3433 ft | 181 kts | 259° |
| 2026-04-20 16:02 | 48.67274 | 9.13388 | 3911 ft | 200 kts | 257° |
| 2026-04-20 16:02 | 48.66957 | 9.11204 | 4313 ft | 224 kts | 273° |
| 2026-04-20 16:02 | 48.67427 | 9.08939 | 4938 ft | 235 kts | 309° |
| 2026-04-20 16:02 | 48.68143 | 9.07734 | 5664 ft | 231 kts | 316° |
| 2026-04-20 16:03 | 48.69369 | 9.06154 | 6680 ft | 239 kts | 328° |
| 2026-04-20 16:03 | 48.71014 | 9.05285 | 7295 ft | 260 kts | 343° |
| 2026-04-20 16:03 | 48.72798 | 9.04549 | 8159 ft | 270 kts | 342° |
| 2026-04-20 16:03 | 48.74669 | 9.04100 | 9166 ft | 278 kts | 358° |
| 2026-04-20 16:04 | 48.77195 | 9.05047 | 10403 ft | 292 kts | 18° |
| 2026-04-20 16:04 | 48.79172 | 9.06194 | 10820 ft | 316 kts | 18° |
| 2026-04-20 16:04 | 48.80579 | 9.07026 | 11255 ft | 325 kts | 18° |
| 2026-04-20 16:04 | 48.82705 | 9.08304 | 12115 ft | 330 kts | 18° |
| 2026-04-20 16:05 | 48.84851 | 9.09601 | 13013 ft | 335 kts | 18° |
| 2026-04-20 16:05 | 48.87027 | 9.10910 | 13913 ft | 339 kts | 18° |
| 2026-04-20 16:05 | 48.89206 | 9.12212 | 14692 ft | 343 kts | 17° |
| 2026-04-20 16:05 | 48.91443 | 9.13545 | 15484 ft | 346 kts | 17° |
| 2026-04-20 16:06 | 48.93701 | 9.14890 | 16279 ft | 350 kts | 17° |
| 2026-04-20 16:06 | 48.95978 | 9.16250 | 17088 ft | 353 kts | 17° |
| 2026-04-20 16:06 | 48.98275 | 9.17629 | 17882 ft | 357 kts | 17° |
| 2026-04-20 16:06 | 49.00604 | 9.19030 | 18623 ft | 360 kts | 17° |
| 2026-04-20 16:07 | 49.02949 | 9.20438 | 19288 ft | 364 kts | 16° |
| 2026-04-20 16:07 | 49.05326 | 9.21860 | 19944 ft | 368 kts | 15° |
| 2026-04-20 16:07 | 49.07724 | 9.23297 | 20596 ft | 373 kts | 15° |
| 2026-04-20 16:07 | 49.10133 | 9.24745 | 21250 ft | 377 kts | 15° |
| 2026-04-20 16:08 | 49.12589 | 9.26224 | 21902 ft | 381 kts | 14° |
| 2026-04-20 16:08 | 49.15071 | 9.27717 | 22541 ft | 385 kts | 14° |
| 2026-04-20 16:08 | 49.17573 | 9.29225 | 23226 ft | 389 kts | 15° |
| 2026-04-20 16:08 | 49.20125 | 9.30585 | 23814 ft | 387 kts | 8° |
| 2026-04-20 16:09 | 49.22758 | 9.31292 | 24330 ft | 383 kts | 358° |
| 2026-04-20 16:09 | 49.25400 | 9.31320 | 24865 ft | 378 kts | 350° |
| 2026-04-20 16:09 | 49.28042 | 9.31106 | 25409 ft | 380 kts | 349° |
| 2026-04-20 16:09 | 49.30694 | 9.30894 | 25945 ft | 382 kts | 349° |
| 2026-04-20 16:10 | 49.33349 | 9.30687 | 26475 ft | 384 kts | 349° |
| 2026-04-20 16:10 | 49.36042 | 9.30625 | 26980 ft | 392 kts | 355° |
| 2026-04-20 16:10 | 49.38782 | 9.31009 | 27503 ft | 397 kts | 358° |
| 2026-04-20 16:10 | 49.41544 | 9.31420 | 27979 ft | 400 kts | 357° |
| 2026-04-20 16:11 | 49.44325 | 9.31835 | 28465 ft | 403 kts | 357° |
| 2026-04-20 16:11 | 49.47123 | 9.32254 | 28943 ft | 405 kts | 356° |
| 2026-04-20 16:11 | 49.49911 | 9.32667 | 29422 ft | 408 kts | 356° |
| 2026-04-20 16:11 | 49.52743 | 9.33085 | 29892 ft | 410 kts | 356° |
| 2026-04-20 16:12 | 49.55594 | 9.33506 | 30318 ft | 412 kts | 356° |
| 2026-04-20 16:12 | 49.58460 | 9.33930 | 30667 ft | 415 kts | 356° |
| 2026-04-20 16:12 | 49.61347 | 9.34356 | 30999 ft | 419 kts | 357° |
| 2026-04-20 16:12 | 49.64266 | 9.34786 | 31281 ft | 423 kts | 357° |
| 2026-04-20 16:13 | 49.67211 | 9.35222 | 31593 ft | 426 kts | 358° |
| 2026-04-20 16:13 | 49.70172 | 9.35663 | 31925 ft | 429 kts | 358° |
| 2026-04-20 16:13 | 49.73141 | 9.36110 | 32361 ft | 429 kts | 358° |
| 2026-04-20 16:13 | 49.76110 | 9.36837 | 32821 ft | 436 kts | 5° |
| 2026-04-20 16:14 | 49.79055 | 9.37977 | 33305 ft | 436 kts | 6° |
| 2026-04-20 16:14 | 49.81992 | 9.39111 | 33812 ft | 435 kts | 7° |
| 2026-04-20 16:14 | 49.84929 | 9.40241 | 34067 ft | 436 kts | 7° |
| 2026-04-20 16:14 | 49.87859 | 9.41372 | 34109 ft | 433 kts | 7° |
| 2026-04-20 16:15 | 49.93816 | 9.43652 | 34108 ft | 445 kts | 7° |
| 2026-04-20 16:15 | 49.99835 | 9.45968 | 34110 ft | 447 kts | 7° |
| 2026-04-20 16:16 | 50.05839 | 9.48296 | 34106 ft | 448 kts | 7° |
| 2026-04-20 16:16 | 50.11978 | 9.49515 | 34108 ft | 444 kts | 1° |
| 2026-04-20 16:17 | 50.18122 | 9.50529 | 34110 ft | 444 kts | 1° |
| 2026-04-20 16:17 | 50.24264 | 9.51565 | 34107 ft | 444 kts | 1° |
| 2026-04-20 16:18 | 50.30416 | 9.52611 | 34121 ft | 444 kts | 1° |
| 2026-04-20 16:18 | 50.36571 | 9.53645 | 34110 ft | 445 kts | 1° |
| 2026-04-20 16:19 | 50.42724 | 9.54687 | 34107 ft | 445 kts | 1° |
| 2026-04-20 16:19 | 50.48897 | 9.55739 | 34126 ft | 446 kts | 2° |
| 2026-04-20 16:20 | 50.55030 | 9.56781 | 34116 ft | 446 kts | 2° |
| 2026-04-20 16:20 | 50.61195 | 9.57822 | 34124 ft | 446 kts | 2° |
| 2026-04-20 16:21 | 50.67415 | 9.58883 | 34128 ft | 447 kts | 2° |
| 2026-04-20 16:21 | 50.73597 | 9.59950 | 34129 ft | 447 kts | 2° |
| 2026-04-20 16:22 | 50.79736 | 9.61097 | 34132 ft | 447 kts | 3° |
| 2026-04-20 16:22 | 50.85916 | 9.62326 | 34133 ft | 448 kts | 3° |
| 2026-04-20 16:23 | 50.92115 | 9.63557 | 34136 ft | 448 kts | 3° |
| 2026-04-20 16:23 | 50.98302 | 9.64769 | 34142 ft | 449 kts | 4° |
| 2026-04-20 16:24 | 51.04510 | 9.65975 | 34143 ft | 450 kts | 4° |
| 2026-04-20 16:24 | 51.10734 | 9.67188 | 34145 ft | 450 kts | 4° |
| 2026-04-20 16:25 | 51.16938 | 9.68408 | 34150 ft | 450 kts | 4° |
| 2026-04-20 16:25 | 51.23181 | 9.69608 | 34162 ft | 450 kts | 4° |
| 2026-04-20 16:26 | 51.29361 | 9.70612 | 34158 ft | 449 kts | 3° |
| 2026-04-20 16:26 | 51.35590 | 9.71562 | 34156 ft | 449 kts | 3° |
| 2026-04-20 16:27 | 51.41820 | 9.72556 | 34165 ft | 449 kts | 4° |
| 2026-04-20 16:27 | 51.48038 | 9.73576 | 34163 ft | 449 kts | 4° |
| 2026-04-20 16:28 | 51.54253 | 9.74711 | 34164 ft | 449 kts | 5° |
| 2026-04-20 16:28 | 51.60430 | 9.75935 | 34162 ft | 449 kts | 5° |
| 2026-04-20 16:29 | 51.66636 | 9.77138 | 34169 ft | 449 kts | 5° |
| 2026-04-20 16:29 | 51.72852 | 9.77386 | 34172 ft | 447 kts | 355° |
| 2026-04-20 16:30 | 51.79067 | 9.76780 | 34174 ft | 447 kts | 355° |
| 2026-04-20 16:30 | 51.85272 | 9.76162 | 33765 ft | 447 kts | 355° |
| 2026-04-20 16:31 | 51.88384 | 9.75850 | 33498 ft | 445 kts | 356° |
| 2026-04-20 16:31 | 51.91426 | 9.75546 | 33212 ft | 432 kts | 356° |
| 2026-04-20 16:31 | 51.94400 | 9.75250 | 32933 ft | 421 kts | 356° |
| 2026-04-20 16:31 | 51.97306 | 9.74964 | 32441 ft | 416 kts | 357° |
| 2026-04-20 16:32 | 52.00184 | 9.74683 | 31914 ft | 412 kts | 357° |
| 2026-04-20 16:32 | 52.03035 | 9.74404 | 31403 ft | 409 kts | 357° |
| 2026-04-20 16:32 | 52.05895 | 9.74121 | 30894 ft | 420 kts | 358° |
| 2026-04-20 16:32 | 52.08854 | 9.73831 | 30359 ft | 429 kts | 358° |
| 2026-04-20 16:33 | 52.11857 | 9.73534 | 29771 ft | 434 kts | 358° |
| 2026-04-20 16:33 | 52.14824 | 9.73235 | 29257 ft | 431 kts | 358° |
| 2026-04-20 16:33 | 52.17802 | 9.72936 | 28748 ft | 427 kts | 358° |
| 2026-04-20 16:33 | 52.20768 | 9.72636 | 28240 ft | 423 kts | 358° |
| 2026-04-20 16:34 | 52.23689 | 9.72339 | 27761 ft | 419 kts | 358° |
| 2026-04-20 16:34 | 52.26587 | 9.72044 | 27281 ft | 416 kts | 358° |
| 2026-04-20 16:34 | 52.29467 | 9.71751 | 26817 ft | 412 kts | 358° |
| 2026-04-20 16:34 | 52.32312 | 9.71459 | 26358 ft | 409 kts | 358° |
| 2026-04-20 16:35 | 52.35142 | 9.71172 | 25879 ft | 406 kts | 358° |
| 2026-04-20 16:35 | 52.37949 | 9.70890 | 25414 ft | 401 kts | 358° |
| 2026-04-20 16:35 | 52.40724 | 9.70612 | 24931 ft | 400 kts | 358° |
| 2026-04-20 16:35 | 52.43499 | 9.70331 | 24445 ft | 397 kts | 358° |
| 2026-04-20 16:36 | 52.46249 | 9.70051 | 23945 ft | 394 kts | 358° |
| 2026-04-20 16:36 | 52.48976 | 9.69777 | 23393 ft | 391 kts | 358° |
| 2026-04-20 16:36 | 52.51686 | 9.69507 | 22892 ft | 388 kts | 358° |
| 2026-04-20 16:36 | 52.54381 | 9.69237 | 22404 ft | 385 kts | 358° |
| 2026-04-20 16:37 | 52.57037 | 9.68968 | 21889 ft | 383 kts | 358° |
| 2026-04-20 16:37 | 52.59693 | 9.68701 | 21403 ft | 380 kts | 358° |
| 2026-04-20 16:37 | 52.62318 | 9.68433 | 20921 ft | 377 kts | 358° |
| 2026-04-20 16:37 | 52.64929 | 9.68167 | 20444 ft | 374 kts | 358° |
| 2026-04-20 16:38 | 52.67496 | 9.67907 | 19983 ft | 372 kts | 358° |
| 2026-04-20 16:38 | 52.70062 | 9.67643 | 19523 ft | 369 kts | 358° |
| 2026-04-20 16:38 | 52.72620 | 9.67382 | 19081 ft | 367 kts | 358° |
| 2026-04-20 16:38 | 52.75165 | 9.67120 | 18639 ft | 365 kts | 358° |
| 2026-04-20 16:39 | 52.77696 | 9.66858 | 18173 ft | 363 kts | 358° |
| 2026-04-20 16:39 | 52.80203 | 9.66598 | 17680 ft | 360 kts | 358° |
| 2026-04-20 16:39 | 52.82695 | 9.66344 | 17192 ft | 357 kts | 358° |
| 2026-04-20 16:39 | 52.85168 | 9.66095 | 16684 ft | 355 kts | 358° |
| 2026-04-20 16:40 | 52.87619 | 9.65845 | 16302 ft | 349 kts | 359° |
| 2026-04-20 16:40 | 52.90002 | 9.65592 | 16022 ft | 339 kts | 359° |
| 2026-04-20 16:40 | 52.92347 | 9.65341 | 15578 ft | 335 kts | 359° |
| 2026-04-20 16:40 | 52.94674 | 9.65092 | 15059 ft | 334 kts | 359° |
| 2026-04-20 16:41 | 52.96968 | 9.64851 | 14569 ft | 333 kts | 359° |
| 2026-04-20 16:41 | 52.99274 | 9.64610 | 14173 ft | 331 kts | 359° |
| 2026-04-20 16:41 | 53.01564 | 9.64376 | 13732 ft | 329 kts | 359° |
| 2026-04-20 16:41 | 53.03843 | 9.64141 | 13312 ft | 326 kts | 359° |
| 2026-04-20 16:42 | 53.06106 | 9.63906 | 12906 ft | 325 kts | 359° |
| 2026-04-20 16:42 | 53.08360 | 9.63669 | 12492 ft | 324 kts | 359° |
| 2026-04-20 16:42 | 53.10588 | 9.63433 | 12082 ft | 318 kts | 360° |
| 2026-04-20 16:42 | 53.12784 | 9.63202 | 11665 ft | 314 kts | 359° |
| 2026-04-20 16:43 | 53.14959 | 9.62971 | 11256 ft | 310 kts | 359° |
| 2026-04-20 16:43 | 53.17104 | 9.62740 | 10854 ft | 307 kts | 360° |
| 2026-04-20 16:43 | 53.19237 | 9.62512 | 10441 ft | 306 kts | 0° |
| 2026-04-20 16:43 | 53.21357 | 9.62289 | 10187 ft | 300 kts | 360° |
| 2026-04-20 16:44 | 53.23369 | 9.62075 | 10034 ft | 289 kts | 359° |
| 2026-04-20 16:44 | 53.25358 | 9.61865 | 9709 ft | 285 kts | 0° |
| 2026-04-20 16:44 | 53.27354 | 9.61657 | 9311 ft | 283 kts | 360° |
| 2026-04-20 16:44 | 53.29312 | 9.61448 | 8722 ft | 280 kts | 0° |
| 2026-04-20 16:45 | 53.31216 | 9.61245 | 8075 ft | 277 kts | 359° |
| 2026-04-20 16:45 | 53.33135 | 9.61044 | 7403 ft | 275 kts | 360° |
| 2026-04-20 16:45 | 53.35033 | 9.60845 | 6781 ft | 272 kts | 1° |
| 2026-04-20 16:45 | 53.36898 | 9.60647 | 6224 ft | 266 kts | 1° |
| 2026-04-20 16:46 | 53.38727 | 9.60455 | 5847 ft | 256 kts | 359° |
| 2026-04-20 16:46 | 53.40402 | 9.60272 | 5717 ft | 234 kts | 359° |
| 2026-04-20 16:46 | 53.41970 | 9.60151 | 5485 ft | 217 kts | 7° |
| 2026-04-20 16:46 | 53.43401 | 9.60693 | 5364 ft | 199 kts | 27° |
| 2026-04-20 16:47 | 53.44489 | 9.61884 | 5153 ft | 185 kts | 46° |
| 2026-04-20 16:47 | 53.45370 | 9.63427 | 4764 ft | 181 kts | 50° |
| 2026-04-20 16:47 | 53.46167 | 9.64963 | 4573 ft | 167 kts | 51° |
| 2026-04-20 16:47 | 53.46887 | 9.66384 | 4475 ft | 153 kts | 52° |
| 2026-04-20 16:48 | 53.47340 | 9.67284 | 4422 ft | 145 kts | 51° |
| 2026-04-20 16:48 | 53.47954 | 9.68508 | 4361 ft | 134 kts | 52° |
| 2026-04-20 16:48 | 53.48545 | 9.69687 | 4235 ft | 131 kts | 52° |
| 2026-04-20 16:48 | 53.49120 | 9.70838 | 4074 ft | 128 kts | 52° |
| 2026-04-20 16:49 | 53.49686 | 9.71970 | 3914 ft | 125 kts | 53° |
| 2026-04-20 16:49 | 53.50245 | 9.73089 | 3738 ft | 126 kts | 52° |
| 2026-04-20 16:49 | 53.50808 | 9.74215 | 3575 ft | 125 kts | 53° |
| 2026-04-20 16:49 | 53.51369 | 9.75338 | 3405 ft | 126 kts | 53° |
| 2026-04-20 16:50 | 53.51927 | 9.76456 | 3230 ft | 124 kts | 53° |
| 2026-04-20 16:50 | 53.52491 | 9.77588 | 3061 ft | 131 kts | 53° |
| 2026-04-20 16:50 | 53.53076 | 9.78762 | 2878 ft | 134 kts | 53° |
| 2026-04-20 16:50 | 53.53675 | 9.79963 | 2690 ft | 133 kts | 53° |
| 2026-04-20 16:51 | 53.54269 | 9.81155 | 2508 ft | 133 kts | 52° |
| 2026-04-20 16:51 | 53.54858 | 9.82338 | 2323 ft | 132 kts | 52° |
| 2026-04-20 16:51 | 53.55447 | 9.83521 | 2140 ft | 131 kts | 51° |
| 2026-04-20 16:51 | 53.56032 | 9.84696 | 1957 ft | 129 kts | 51° |
| 2026-04-20 16:52 | 53.56594 | 9.85826 | 1784 ft | 126 kts | 50° |
| 2026-04-20 16:52 | 53.57160 | 9.86946 | 1625 ft | 126 kts | 49° |
| 2026-04-20 16:52 | 53.57735 | 9.88059 | 1474 ft | 127 kts | 49° |
| 2026-04-20 16:52 | 53.58298 | 9.89191 | 1251 ft | 124 kts | 51° |
| 2026-04-20 16:53 | 53.58834 | 9.90323 | 1070 ft | 122 kts | 51° |
| 2026-04-20 16:53 | 53.59373 | 9.91428 | 858 ft | 121 kts | 51° |
| 2026-04-20 16:53 | 53.59903 | 9.92503 | 692 ft | 122 kts | 50° |
| 2026-04-20 16:53 | 53.60455 | 9.93616 | 543 ft | 124 kts | 49° |
| 2026-04-20 16:54 | 53.60999 | 9.94718 | 381 ft | 120 kts | 49° |
| 2026-04-20 16:54 | 53.61525 | 9.95781 | 212 ft | 120 kts | 48° |
| 2026-04-20 16:54 | 53.62051 | 9.96830 | 64 ft | 118 kts | 49° |
| 2026-04-20 16:54 | 53.62540 | 9.97814 | 41 ft | 99 kts | 50° |
| 2026-04-20 16:55 | 53.62924 | 9.98591 | 45 ft | 74 kts | 50° |
| 2026-04-20 16:55 | 53.63166 | 9.99080 | 45 ft | 36 kts | 50° |
| 2026-04-20 16:55 | 53.63272 | 9.99315 | 47 ft | 19 kts | 60° |
| 2026-04-20 16:55 | 53.63289 | 9.99528 | 47 ft | 17 kts | 98° |
| 2026-04-20 16:56 | 53.63269 | 9.99711 | 46 ft | 11 kts | 106° |
| 2026-04-20 16:56 | 53.63229 | 9.99746 | 49 ft | 6 kts | 144° |
| 2026-04-20 16:56 | 53.63188 | 9.99790 | 49 ft | 8 kts | 152° |
| 2026-04-20 16:56 | 53.63140 | 9.99832 | 48 ft | 8 kts | 153° |
| 2026-04-20 16:57 | 53.63116 | 9.99852 | 49 ft | 4 kts | 153° |
| 2026-04-20 16:57 | 53.63093 | 9.99872 | 48 ft | 4 kts | 153° |
| 2026-04-20 16:57 | 53.63073 | 9.99889 | 48 ft | 3 kts | 153° |
| 2026-04-20 16:57 | 53.63047 | 9.99912 | 48 ft | 5 kts | 153° |